sensor_id;sensor_type;location;lat;lon;timestamp;P1;durP1;ratioP1;P2;durP2;ratioP2
50591;SDS011;36548;50.506;30.834;2023-05-07T00:02:15;3.47;;;2.62;;
50591;SDS011;36548;50.506;30.834;2023-05-07T00:03:24;3.28;;;2.72;;
50591;SDS011;36548;50.506;30.834;2023-05-07T00:04:40;4.12;;;2.77;;
50591;SDS011;36548;50.506;30.834;2023-05-07T00:05:49;4.53;;;3.15;;
50591;SDS011;36548;50.506;30.834;2023-05-07T00:07:05;4.13;;;2.75;;
50591;SDS011;36548;50.506;30.834;2023-05-07T00:08:13;4.37;;;3.35;;
50591;SDS011;36548;50.506;30.834;2023-05-07T00:09:29;3.42;;;2.87;;
50591;SDS011;36548;50.506;30.834;2023-05-07T00:10:38;4.35;;;2.75;;
50591;SDS011;36548;50.506;30.834;2023-05-07T00:11:54;3.80;;;2.55;;
50591;SDS011;36548;50.506;30.834;2023-05-07T00:13:05;5.38;;;2.92;;
50591;SDS011;36548;50.506;30.834;2023-05-07T00:14:14;6.13;;;2.92;;
50591;SDS011;36548;50.506;30.834;2023-05-07T00:15:24;4.65;;;2.92;;
50591;SDS011;36548;50.506;30.834;2023-05-07T00:16:33;3.40;;;2.90;;
50591;SDS011;36548;50.506;30.834;2023-05-07T00:17:48;4.88;;;2.72;;
50591;SDS011;36548;50.506;30.834;2023-05-07T00:18:58;4.83;;;2.83;;
50591;SDS011;36548;50.506;30.834;2023-05-07T00:20:09;4.13;;;2.67;;
50591;SDS011;36548;50.506;30.834;2023-05-07T00:21:26;3.63;;;2.70;;
50591;SDS011;36548;50.506;30.834;2023-05-07T00:22:34;5.23;;;3.02;;
50591;SDS011;36548;50.506;30.834;2023-05-07T00:23:50;5.65;;;2.72;;
50591;SDS011;36548;50.506;30.834;2023-05-07T00:24:59;3.08;;;2.47;;
50591;SDS011;36548;50.506;30.834;2023-05-07T00:26:14;5.80;;;2.70;;
50591;SDS011;36548;50.506;30.834;2023-05-07T00:27:25;5.95;;;3.50;;
50591;SDS011;36548;50.506;30.834;2023-05-07T00:28:35;5.15;;;3.30;;
50591;SDS011;36548;50.506;30.834;2023-05-07T00:29:50;3.68;;;2.37;;
50591;SDS011;36548;50.506;30.834;2023-05-07T00:31:00;4.48;;;3.15;;
50591;SDS011;36548;50.506;30.834;2023-05-07T00:32:15;7.32;;;2.93;;
50591;SDS011;36548;50.506;30.834;2023-05-07T00:33:24;3.75;;;3.02;;
50591;SDS011;36548;50.506;30.834;2023-05-07T00:34:41;4.45;;;3.25;;
50591;SDS011;36548;50.506;30.834;2023-05-07T00:35:51;2.63;;;1.98;;
50591;SDS011;36548;50.506;30.834;2023-05-07T00:37:10;5.08;;;2.50;;
50591;SDS011;36548;50.506;30.834;2023-05-07T00:38:20;4.68;;;3.24;;
50591;SDS011;36548;50.506;30.834;2023-05-07T00:39:30;6.38;;;2.18;;
50591;SDS011;36548;50.506;30.834;2023-05-07T00:40:45;3.42;;;2.25;;
50591;SDS011;36548;50.506;30.834;2023-05-07T00:41:53;3.35;;;2.53;;
50591;SDS011;36548;50.506;30.834;2023-05-07T00:43:03;5.00;;;2.72;;
50591;SDS011;36548;50.506;30.834;2023-05-07T00:44:19;5.10;;;2.18;;
50591;SDS011;36548;50.506;30.834;2023-05-07T00:45:29;3.85;;;2.48;;
50591;SDS011;36548;50.506;30.834;2023-05-07T00:46:45;4.57;;;2.78;;
50591;SDS011;36548;50.506;30.834;2023-05-07T00:48:01;3.63;;;2.73;;
50591;SDS011;36548;50.506;30.834;2023-05-07T00:49:17;4.23;;;1.97;;
50591;SDS011;36548;50.506;30.834;2023-05-07T00:50:28;3.70;;;2.05;;
50591;SDS011;36548;50.506;30.834;2023-05-07T00:51:45;4.60;;;2.45;;
50591;SDS011;36548;50.506;30.834;2023-05-07T00:52:56;4.23;;;2.42;;
50591;SDS011;36548;50.506;30.834;2023-05-07T00:54:11;3.50;;;2.55;;
50591;SDS011;36548;50.506;30.834;2023-05-07T00:55:21;4.13;;;2.52;;
50591;SDS011;36548;50.506;30.834;2023-05-07T00:56:31;5.02;;;2.32;;
50591;SDS011;36548;50.506;30.834;2023-05-07T00:57:47;4.85;;;2.60;;
50591;SDS011;36548;50.506;30.834;2023-05-07T00:58:57;3.75;;;2.40;;
50591;SDS011;36548;50.506;30.834;2023-05-07T01:00:12;5.25;;;2.22;;
50591;SDS011;36548;50.506;30.834;2023-05-07T01:02:32;3.20;;;2.40;;
50591;SDS011;36548;50.506;30.834;2023-05-07T01:03:48;4.82;;;2.97;;
50591;SDS011;36548;50.506;30.834;2023-05-07T01:04:58;4.63;;;2.40;;
50591;SDS011;36548;50.506;30.834;2023-05-07T01:06:17;3.97;;;2.20;;
50591;SDS011;36548;50.506;30.834;2023-05-07T01:07:27;5.05;;;2.30;;
50591;SDS011;36548;50.506;30.834;2023-05-07T01:08:44;3.65;;;2.92;;
50591;SDS011;36548;50.506;30.834;2023-05-07T01:09:54;4.38;;;2.37;;
50591;SDS011;36548;50.506;30.834;2023-05-07T01:11:06;3.03;;;2.58;;
50591;SDS011;36548;50.506;30.834;2023-05-07T01:12:23;2.75;;;2.25;;
50591;SDS011;36548;50.506;30.834;2023-05-07T01:13:34;5.28;;;2.40;;
50591;SDS011;36548;50.506;30.834;2023-05-07T01:14:51;3.45;;;2.58;;
50591;SDS011;36548;50.506;30.834;2023-05-07T01:17:18;6.40;;;3.10;;
50591;SDS011;36548;50.506;30.834;2023-05-07T01:18:33;4.12;;;2.50;;
50591;SDS011;36548;50.506;30.834;2023-05-07T01:19:42;4.67;;;2.50;;
50591;SDS011;36548;50.506;30.834;2023-05-07T01:20:58;4.68;;;2.50;;
50591;SDS011;36548;50.506;30.834;2023-05-07T01:22:10;5.30;;;2.75;;
50591;SDS011;36548;50.506;30.834;2023-05-07T01:23:26;5.03;;;2.70;;
50591;SDS011;36548;50.506;30.834;2023-05-07T01:24:37;3.15;;;2.40;;
50591;SDS011;36548;50.506;30.834;2023-05-07T01:25:54;5.85;;;2.35;;
50591;SDS011;36548;50.506;30.834;2023-05-07T01:27:06;3.02;;;2.18;;
50591;SDS011;36548;50.506;30.834;2023-05-07T01:28:22;3.20;;;2.50;;
50591;SDS011;36548;50.506;30.834;2023-05-07T01:29:31;4.23;;;2.98;;
50591;SDS011;36548;50.506;30.834;2023-05-07T01:30:42;4.50;;;2.55;;
50591;SDS011;36548;50.506;30.834;2023-05-07T01:32:00;4.58;;;2.70;;
50591;SDS011;36548;50.506;30.834;2023-05-07T01:33:15;3.93;;;2.50;;
50591;SDS011;36548;50.506;30.834;2023-05-07T01:34:28;3.25;;;2.55;;
50591;SDS011;36548;50.506;30.834;2023-05-07T01:35:41;4.12;;;2.38;;
50591;SDS011;36548;50.506;30.834;2023-05-07T01:36:55;4.35;;;2.35;;
50591;SDS011;36548;50.506;30.834;2023-05-07T01:38:12;2.92;;;2.10;;
50591;SDS011;36548;50.506;30.834;2023-05-07T01:39:23;2.68;;;2.35;;
50591;SDS011;36548;50.506;30.834;2023-05-07T01:40:39;4.30;;;2.30;;
50591;SDS011;36548;50.506;30.834;2023-05-07T01:41:50;2.85;;;2.20;;
50591;SDS011;36548;50.506;30.834;2023-05-07T01:43:00;3.05;;;2.20;;
50591;SDS011;36548;50.506;30.834;2023-05-07T01:44:19;2.70;;;2.12;;
50591;SDS011;36548;50.506;30.834;2023-05-07T01:45:28;2.98;;;2.38;;
50591;SDS011;36548;50.506;30.834;2023-05-07T01:46:40;2.47;;;2.12;;
50591;SDS011;36548;50.506;30.834;2023-05-07T01:47:50;3.78;;;2.55;;
50591;SDS011;36548;50.506;30.834;2023-05-07T01:49:01;3.78;;;3.07;;
50591;SDS011;36548;50.506;30.834;2023-05-07T01:50:12;3.05;;;1.95;;
50591;SDS011;36548;50.506;30.834;2023-05-07T01:51:30;4.03;;;2.22;;
50591;SDS011;36548;50.506;30.834;2023-05-07T01:52:42;2.70;;;2.07;;
50591;SDS011;36548;50.506;30.834;2023-05-07T01:53:58;3.20;;;2.45;;
50591;SDS011;36548;50.506;30.834;2023-05-07T01:56:18;5.52;;;2.60;;
50591;SDS011;36548;50.506;30.834;2023-05-07T01:57:28;3.05;;;2.65;;
50591;SDS011;36548;50.506;30.834;2023-05-07T01:58:36;2.98;;;2.15;;
50591;SDS011;36548;50.506;30.834;2023-05-07T01:59:46;3.05;;;2.23;;
50591;SDS011;36548;50.506;30.834;2023-05-07T02:01:02;2.40;;;2.05;;
50591;SDS011;36548;50.506;30.834;2023-05-07T02:02:13;4.47;;;2.05;;
50591;SDS011;36548;50.506;30.834;2023-05-07T02:03:29;5.57;;;2.75;;
50591;SDS011;36548;50.506;30.834;2023-05-07T02:04:41;2.35;;;1.87;;
50591;SDS011;36548;50.506;30.834;2023-05-07T02:05:50;4.35;;;2.60;;
50591;SDS011;36548;50.506;30.834;2023-05-07T02:08:21;3.30;;;2.10;;
50591;SDS011;36548;50.506;30.834;2023-05-07T02:09:38;2.48;;;1.92;;
50591;SDS011;36548;50.506;30.834;2023-05-07T02:10:48;2.63;;;2.15;;
50591;SDS011;36548;50.506;30.834;2023-05-07T02:12:05;2.55;;;2.35;;
50591;SDS011;36548;50.506;30.834;2023-05-07T02:13:15;6.30;;;2.10;;
50591;SDS011;36548;50.506;30.834;2023-05-07T02:14:50;4.72;;;2.52;;
50591;SDS011;36548;50.506;30.834;2023-05-07T02:16:00;3.10;;;2.28;;
50591;SDS011;36548;50.506;30.834;2023-05-07T02:17:10;3.25;;;2.15;;
50591;SDS011;36548;50.506;30.834;2023-05-07T02:18:25;4.22;;;2.05;;
50591;SDS011;36548;50.506;30.834;2023-05-07T02:19:34;3.12;;;2.12;;
50591;SDS011;36548;50.506;30.834;2023-05-07T02:20:44;3.50;;;2.50;;
50591;SDS011;36548;50.506;30.834;2023-05-07T02:21:53;3.37;;;2.30;;
50591;SDS011;36548;50.506;30.834;2023-05-07T02:23:03;2.77;;;2.10;;
50591;SDS011;36548;50.506;30.834;2023-05-07T02:24:18;2.58;;;2.07;;
50591;SDS011;36548;50.506;30.834;2023-05-07T02:25:27;3.25;;;2.52;;
50591;SDS011;36548;50.506;30.834;2023-05-07T02:26:44;4.63;;;2.53;;
50591;SDS011;36548;50.506;30.834;2023-05-07T02:27:53;2.48;;;2.28;;
50591;SDS011;36548;50.506;30.834;2023-05-07T02:30:19;3.40;;;2.27;;
50591;SDS011;36548;50.506;30.834;2023-05-07T02:31:32;3.10;;;2.23;;
50591;SDS011;36548;50.506;30.834;2023-05-07T02:32:48;3.07;;;2.23;;
50591;SDS011;36548;50.506;30.834;2023-05-07T02:33:58;2.97;;;2.02;;
50591;SDS011;36548;50.506;30.834;2023-05-07T02:35:08;2.85;;;2.10;;
50591;SDS011;36548;50.506;30.834;2023-05-07T02:36:23;5.40;;;2.45;;
50591;SDS011;36548;50.506;30.834;2023-05-07T02:37:34;10.98;;;2.60;;
50591;SDS011;36548;50.506;30.834;2023-05-07T02:38:49;2.67;;;2.07;;
50591;SDS011;36548;50.506;30.834;2023-05-07T02:39:58;3.28;;;2.52;;
50591;SDS011;36548;50.506;30.834;2023-05-07T02:41:08;4.00;;;2.15;;
50591;SDS011;36548;50.506;30.834;2023-05-07T02:42:26;3.15;;;2.25;;
50591;SDS011;36548;50.506;30.834;2023-05-07T02:43:36;2.00;;;1.75;;
50591;SDS011;36548;50.506;30.834;2023-05-07T02:44:51;2.62;;;2.18;;
50591;SDS011;36548;50.506;30.834;2023-05-07T02:46:08;3.23;;;2.22;;
50591;SDS011;36548;50.506;30.834;2023-05-07T02:47:23;3.43;;;2.67;;
50591;SDS011;36548;50.506;30.834;2023-05-07T02:48:33;3.17;;;1.87;;
50591;SDS011;36548;50.506;30.834;2023-05-07T02:49:43;3.08;;;1.95;;
50591;SDS011;36548;50.506;30.834;2023-05-07T02:50:59;3.60;;;2.30;;
50591;SDS011;36548;50.506;30.834;2023-05-07T02:52:08;3.00;;;2.25;;
50591;SDS011;36548;50.506;30.834;2023-05-07T02:53:25;4.57;;;2.75;;
50591;SDS011;36548;50.506;30.834;2023-05-07T02:54:34;2.80;;;2.08;;
50591;SDS011;36548;50.506;30.834;2023-05-07T02:55:46;2.77;;;2.42;;
50591;SDS011;36548;50.506;30.834;2023-05-07T02:56:55;3.45;;;2.07;;
50591;SDS011;36548;50.506;30.834;2023-05-07T02:58:11;3.40;;;2.20;;
50591;SDS011;36548;50.506;30.834;2023-05-07T02:59:21;4.95;;;2.15;;
50591;SDS011;36548;50.506;30.834;2023-05-07T03:00:32;2.22;;;1.90;;
50591;SDS011;36548;50.506;30.834;2023-05-07T03:01:48;3.72;;;2.35;;
50591;SDS011;36548;50.506;30.834;2023-05-07T03:02:58;2.95;;;2.20;;
50591;SDS011;36548;50.506;30.834;2023-05-07T03:04:15;3.20;;;2.20;;
50591;SDS011;36548;50.506;30.834;2023-05-07T03:05:24;5.00;;;2.40;;
50591;SDS011;36548;50.506;30.834;2023-05-07T03:06:34;3.33;;;2.15;;
50591;SDS011;36548;50.506;30.834;2023-05-07T03:07:44;4.57;;;2.50;;
50591;SDS011;36548;50.506;30.834;2023-05-07T03:09:00;4.77;;;2.47;;
50591;SDS011;36548;50.506;30.834;2023-05-07T03:10:11;3.70;;;2.30;;
50591;SDS011;36548;50.506;30.834;2023-05-07T03:11:45;2.88;;;2.45;;
50591;SDS011;36548;50.506;30.834;2023-05-07T03:12:54;3.15;;;2.25;;
50591;SDS011;36548;50.506;30.834;2023-05-07T03:14:10;3.92;;;2.22;;
50591;SDS011;36548;50.506;30.834;2023-05-07T03:15:20;2.85;;;2.25;;
50591;SDS011;36548;50.506;30.834;2023-05-07T03:16:36;3.28;;;2.27;;
50591;SDS011;36548;50.506;30.834;2023-05-07T03:17:46;2.80;;;2.25;;
50591;SDS011;36548;50.506;30.834;2023-05-07T03:20:06;3.38;;;2.90;;
50591;SDS011;36548;50.506;30.834;2023-05-07T03:21:20;4.83;;;2.70;;
50591;SDS011;36548;50.506;30.834;2023-05-07T03:22:36;4.70;;;3.00;;
50591;SDS011;36548;50.506;30.834;2023-05-07T03:23:45;3.92;;;2.80;;
50591;SDS011;36548;50.506;30.834;2023-05-07T03:24:54;3.13;;;2.47;;
50591;SDS011;36548;50.506;30.834;2023-05-07T03:26:10;4.30;;;2.95;;
50591;SDS011;36548;50.506;30.834;2023-05-07T03:27:20;4.17;;;2.60;;
50591;SDS011;36548;50.506;30.834;2023-05-07T03:28:36;3.13;;;2.78;;
50591;SDS011;36548;50.506;30.834;2023-05-07T03:29:48;4.30;;;2.95;;
50591;SDS011;36548;50.506;30.834;2023-05-07T03:31:03;4.70;;;2.87;;
50591;SDS011;36548;50.506;30.834;2023-05-07T03:32:13;4.35;;;2.55;;
50591;SDS011;36548;50.506;30.834;2023-05-07T03:33:32;4.03;;;2.53;;
50591;SDS011;36548;50.506;30.834;2023-05-07T03:34:46;3.52;;;2.58;;
50591;SDS011;36548;50.506;30.834;2023-05-07T03:36:01;4.75;;;2.33;;
50591;SDS011;36548;50.506;30.834;2023-05-07T03:37:10;3.07;;;2.57;;
50591;SDS011;36548;50.506;30.834;2023-05-07T03:38:20;3.25;;;2.30;;
50591;SDS011;36548;50.506;30.834;2023-05-07T03:39:29;3.55;;;2.40;;
50591;SDS011;36548;50.506;30.834;2023-05-07T03:40:45;3.67;;;2.53;;
50591;SDS011;36548;50.506;30.834;2023-05-07T03:41:54;3.75;;;2.68;;
50591;SDS011;36548;50.506;30.834;2023-05-07T03:43:04;4.32;;;1.80;;
50591;SDS011;36548;50.506;30.834;2023-05-07T03:44:15;4.83;;;2.42;;
50591;SDS011;36548;50.506;30.834;2023-05-07T03:45:24;3.62;;;2.63;;
50591;SDS011;36548;50.506;30.834;2023-05-07T03:46:39;2.53;;;2.18;;
50591;SDS011;36548;50.506;30.834;2023-05-07T03:47:54;2.90;;;2.45;;
50591;SDS011;36548;50.506;30.834;2023-05-07T03:49:04;2.67;;;2.35;;
50591;SDS011;36548;50.506;30.834;2023-05-07T03:50:15;2.93;;;2.20;;
50591;SDS011;36548;50.506;30.834;2023-05-07T03:51:24;4.22;;;2.77;;
50591;SDS011;36548;50.506;30.834;2023-05-07T03:52:41;4.07;;;2.52;;
50591;SDS011;36548;50.506;30.834;2023-05-07T03:53:51;3.90;;;2.25;;
50591;SDS011;36548;50.506;30.834;2023-05-07T03:55:05;6.25;;;2.92;;
50591;SDS011;36548;50.506;30.834;2023-05-07T03:56:23;6.10;;;2.78;;
50591;SDS011;36548;50.506;30.834;2023-05-07T03:57:35;4.40;;;2.88;;
50591;SDS011;36548;50.506;30.834;2023-05-07T03:58:45;3.58;;;2.77;;
50591;SDS011;36548;50.506;30.834;2023-05-07T04:00:00;4.88;;;2.25;;
50591;SDS011;36548;50.506;30.834;2023-05-07T04:01:11;17.75;;;3.90;;
50591;SDS011;36548;50.506;30.834;2023-05-07T04:02:21;10.97;;;3.52;;
50591;SDS011;36548;50.506;30.834;2023-05-07T04:03:31;9.27;;;3.50;;
50591;SDS011;36548;50.506;30.834;2023-05-07T04:04:40;5.30;;;3.00;;
50591;SDS011;36548;50.506;30.834;2023-05-07T04:05:50;5.25;;;3.45;;
50591;SDS011;36548;50.506;30.834;2023-05-07T04:07:00;5.00;;;3.67;;
50591;SDS011;36548;50.506;30.834;2023-05-07T04:08:11;5.75;;;4.05;;
50591;SDS011;36548;50.506;30.834;2023-05-07T04:09:26;5.67;;;3.77;;
50591;SDS011;36548;50.506;30.834;2023-05-07T04:10:37;5.87;;;3.02;;
50591;SDS011;36548;50.506;30.834;2023-05-07T04:11:48;5.65;;;3.65;;
50591;SDS011;36548;50.506;30.834;2023-05-07T04:13:05;6.80;;;3.55;;
50591;SDS011;36548;50.506;30.834;2023-05-07T04:14:15;5.77;;;3.92;;
50591;SDS011;36548;50.506;30.834;2023-05-07T04:15:32;5.77;;;3.75;;
50591;SDS011;36548;50.506;30.834;2023-05-07T04:16:41;6.13;;;4.17;;
50591;SDS011;36548;50.506;30.834;2023-05-07T04:17:57;7.78;;;3.92;;
50591;SDS011;36548;50.506;30.834;2023-05-07T04:19:07;6.85;;;3.85;;
50591;SDS011;36548;50.506;30.834;2023-05-07T04:20:24;6.38;;;4.03;;
50591;SDS011;36548;50.506;30.834;2023-05-07T04:21:38;5.42;;;4.28;;
50591;SDS011;36548;50.506;30.834;2023-05-07T04:22:48;3.63;;;2.97;;
50591;SDS011;36548;50.506;30.834;2023-05-07T04:23:58;4.45;;;3.13;;
50591;SDS011;36548;50.506;30.834;2023-05-07T04:25:15;5.18;;;3.43;;
50591;SDS011;36548;50.506;30.834;2023-05-07T04:26:25;6.08;;;3.40;;
50591;SDS011;36548;50.506;30.834;2023-05-07T04:27:41;6.95;;;3.75;;
50591;SDS011;36548;50.506;30.834;2023-05-07T04:28:51;5.15;;;3.45;;
50591;SDS011;36548;50.506;30.834;2023-05-07T04:30:07;4.92;;;2.97;;
50591;SDS011;36548;50.506;30.834;2023-05-07T04:31:20;3.05;;;2.75;;
50591;SDS011;36548;50.506;30.834;2023-05-07T04:32:35;3.95;;;2.95;;
50591;SDS011;36548;50.506;30.834;2023-05-07T04:33:46;4.78;;;2.45;;
50591;SDS011;36548;50.506;30.834;2023-05-07T04:35:01;6.32;;;3.15;;
50591;SDS011;36548;50.506;30.834;2023-05-07T04:36:11;3.73;;;2.25;;
50591;SDS011;36548;50.506;30.834;2023-05-07T04:37:26;3.25;;;2.70;;
50591;SDS011;36548;50.506;30.834;2023-05-07T04:38:35;4.13;;;2.53;;
50591;SDS011;36548;50.506;30.834;2023-05-07T04:39:46;2.85;;;2.45;;
50591;SDS011;36548;50.506;30.834;2023-05-07T04:41:03;3.15;;;2.10;;
50591;SDS011;36548;50.506;30.834;2023-05-07T04:42:17;3.77;;;2.60;;
50591;SDS011;36548;50.506;30.834;2023-05-07T04:43:34;3.75;;;2.62;;
50591;SDS011;36548;50.506;30.834;2023-05-07T04:44:43;3.20;;;2.50;;
50591;SDS011;36548;50.506;30.834;2023-05-07T04:45:55;4.22;;;3.07;;
50591;SDS011;36548;50.506;30.834;2023-05-07T04:47:11;3.88;;;2.38;;
50591;SDS011;36548;50.506;30.834;2023-05-07T04:48:21;5.03;;;2.58;;
50591;SDS011;36548;50.506;30.834;2023-05-07T04:49:40;4.50;;;2.87;;
50591;SDS011;36548;50.506;30.834;2023-05-07T04:50:50;5.28;;;3.40;;
50591;SDS011;36548;50.506;30.834;2023-05-07T04:52:06;3.93;;;3.58;;
50591;SDS011;36548;50.506;30.834;2023-05-07T04:53:14;6.40;;;5.22;;
50591;SDS011;36548;50.506;30.834;2023-05-07T04:54:30;3.57;;;3.25;;
50591;SDS011;36548;50.506;30.834;2023-05-07T04:55:41;5.08;;;3.30;;
50591;SDS011;36548;50.506;30.834;2023-05-07T04:56:56;3.30;;;2.68;;
50591;SDS011;36548;50.506;30.834;2023-05-07T04:58:06;4.48;;;2.90;;
50591;SDS011;36548;50.506;30.834;2023-05-07T04:59:23;5.78;;;3.05;;
50591;SDS011;36548;50.506;30.834;2023-05-07T05:00:33;8.30;;;3.12;;
50591;SDS011;36548;50.506;30.834;2023-05-07T05:01:48;3.42;;;2.75;;
50591;SDS011;36548;50.506;30.834;2023-05-07T05:02:57;3.00;;;2.63;;
50591;SDS011;36548;50.506;30.834;2023-05-07T05:04:12;5.38;;;2.87;;
50591;SDS011;36548;50.506;30.834;2023-05-07T05:05:22;3.57;;;2.83;;
50591;SDS011;36548;50.506;30.834;2023-05-07T05:06:36;3.93;;;2.77;;
50591;SDS011;36548;50.506;30.834;2023-05-07T05:07:45;3.70;;;2.80;;
50591;SDS011;36548;50.506;30.834;2023-05-07T05:09:01;5.63;;;3.13;;
50591;SDS011;36548;50.506;30.834;2023-05-07T05:10:11;3.75;;;2.38;;
50591;SDS011;36548;50.506;30.834;2023-05-07T05:11:27;3.60;;;2.75;;
50591;SDS011;36548;50.506;30.834;2023-05-07T05:12:36;4.32;;;2.28;;
50591;SDS011;36548;50.506;30.834;2023-05-07T05:13:52;3.97;;;3.53;;
50591;SDS011;36548;50.506;30.834;2023-05-07T05:15:02;2.93;;;2.58;;
50591;SDS011;36548;50.506;30.834;2023-05-07T05:16:18;3.58;;;2.47;;
50591;SDS011;36548;50.506;30.834;2023-05-07T05:17:27;3.62;;;2.50;;
50591;SDS011;36548;50.506;30.834;2023-05-07T05:18:42;2.43;;;2.18;;
50591;SDS011;36548;50.506;30.834;2023-05-07T05:19:52;5.55;;;2.85;;
50591;SDS011;36548;50.506;30.834;2023-05-07T05:21:07;4.17;;;2.85;;
50591;SDS011;36548;50.506;30.834;2023-05-07T05:22:17;3.43;;;2.50;;
50591;SDS011;36548;50.506;30.834;2023-05-07T05:23:33;3.70;;;2.58;;
50591;SDS011;36548;50.506;30.834;2023-05-07T05:24:43;6.35;;;2.90;;
50591;SDS011;36548;50.506;30.834;2023-05-07T05:25:58;2.88;;;2.42;;
50591;SDS011;36548;50.506;30.834;2023-05-07T05:27:09;5.05;;;3.15;;
50591;SDS011;36548;50.506;30.834;2023-05-07T05:28:24;4.08;;;3.17;;
50591;SDS011;36548;50.506;30.834;2023-05-07T05:29:33;5.28;;;3.00;;
50591;SDS011;36548;50.506;30.834;2023-05-07T05:30:49;5.17;;;2.65;;
50591;SDS011;36548;50.506;30.834;2023-05-07T05:32:00;3.45;;;2.95;;
50591;SDS011;36548;50.506;30.834;2023-05-07T05:33:15;5.32;;;2.93;;
50591;SDS011;36548;50.506;30.834;2023-05-07T05:34:25;3.80;;;2.50;;
50591;SDS011;36548;50.506;30.834;2023-05-07T05:35:40;3.90;;;2.88;;
50591;SDS011;36548;50.506;30.834;2023-05-07T05:36:51;4.28;;;2.82;;
50591;SDS011;36548;50.506;30.834;2023-05-07T05:38:07;3.73;;;2.52;;
50591;SDS011;36548;50.506;30.834;2023-05-07T05:39:19;3.37;;;2.92;;
50591;SDS011;36548;50.506;30.834;2023-05-07T05:40:36;5.60;;;3.02;;
50591;SDS011;36548;50.506;30.834;2023-05-07T05:41:46;3.00;;;2.50;;
50591;SDS011;36548;50.506;30.834;2023-05-07T05:43:01;3.85;;;2.40;;
50591;SDS011;36548;50.506;30.834;2023-05-07T05:44:10;2.72;;;2.25;;
50591;SDS011;36548;50.506;30.834;2023-05-07T05:45:20;3.25;;;2.77;;
50591;SDS011;36548;50.506;30.834;2023-05-07T05:46:35;3.88;;;2.42;;
50591;SDS011;36548;50.506;30.834;2023-05-07T05:47:45;4.95;;;2.45;;
50591;SDS011;36548;50.506;30.834;2023-05-07T05:49:01;3.30;;;2.50;;
50591;SDS011;36548;50.506;30.834;2023-05-07T05:50:12;3.15;;;2.55;;
50591;SDS011;36548;50.506;30.834;2023-05-07T05:51:21;3.08;;;2.80;;
50591;SDS011;36548;50.506;30.834;2023-05-07T05:52:36;2.87;;;2.20;;
50591;SDS011;36548;50.506;30.834;2023-05-07T05:53:45;2.58;;;2.20;;
50591;SDS011;36548;50.506;30.834;2023-05-07T05:55:00;3.78;;;2.92;;
50591;SDS011;36548;50.506;30.834;2023-05-07T05:56:10;3.67;;;2.62;;
50591;SDS011;36548;50.506;30.834;2023-05-07T05:57:25;4.47;;;2.65;;
50591;SDS011;36548;50.506;30.834;2023-05-07T05:58:35;4.05;;;2.75;;
50591;SDS011;36548;50.506;30.834;2023-05-07T05:59:50;3.82;;;2.68;;
50591;SDS011;36548;50.506;30.834;2023-05-07T06:01:00;3.00;;;2.57;;
50591;SDS011;36548;50.506;30.834;2023-05-07T06:02:17;3.92;;;2.67;;
50591;SDS011;36548;50.506;30.834;2023-05-07T06:03:27;3.93;;;2.97;;
50591;SDS011;36548;50.506;30.834;2023-05-07T06:04:37;3.13;;;2.57;;
50591;SDS011;36548;50.506;30.834;2023-05-07T06:05:46;3.73;;;2.50;;
50591;SDS011;36548;50.506;30.834;2023-05-07T06:07:01;6.30;;;3.25;;
50591;SDS011;36548;50.506;30.834;2023-05-07T06:08:10;3.72;;;2.23;;
50591;SDS011;36548;50.506;30.834;2023-05-07T06:09:20;3.65;;;2.60;;
50591;SDS011;36548;50.506;30.834;2023-05-07T06:10:36;5.10;;;2.55;;
50591;SDS011;36548;50.506;30.834;2023-05-07T06:11:47;3.48;;;2.88;;
50591;SDS011;36548;50.506;30.834;2023-05-07T06:13:03;2.90;;;2.53;;
50591;SDS011;36548;50.506;30.834;2023-05-07T06:15:29;4.07;;;2.48;;
50591;SDS011;36548;50.506;30.834;2023-05-07T06:16:44;3.38;;;3.03;;
50591;SDS011;36548;50.506;30.834;2023-05-07T06:19:09;4.50;;;3.48;;
50591;SDS011;36548;50.506;30.834;2023-05-07T06:20:25;3.50;;;3.15;;
50591;SDS011;36548;50.506;30.834;2023-05-07T06:21:34;4.43;;;2.50;;
50591;SDS011;36548;50.506;30.834;2023-05-07T06:22:43;4.65;;;2.85;;
50591;SDS011;36548;50.506;30.834;2023-05-07T06:25:19;2.84;;;2.38;;
50591;SDS011;36548;50.506;30.834;2023-05-07T06:26:34;3.57;;;2.03;;
50591;SDS011;36548;50.506;30.834;2023-05-07T06:27:43;2.92;;;2.28;;
50591;SDS011;36548;50.506;30.834;2023-05-07T06:28:58;2.83;;;2.40;;
50591;SDS011;36548;50.506;30.834;2023-05-07T06:30:08;2.53;;;2.25;;
50591;SDS011;36548;50.506;30.834;2023-05-07T06:31:29;2.02;;;1.78;;
50591;SDS011;36548;50.506;30.834;2023-05-07T06:32:45;3.67;;;2.52;;
50591;SDS011;36548;50.506;30.834;2023-05-07T06:35:07;3.73;;;2.65;;
50591;SDS011;36548;50.506;30.834;2023-05-07T06:36:18;3.95;;;2.22;;
50591;SDS011;36548;50.506;30.834;2023-05-07T06:37:34;2.77;;;2.12;;
50591;SDS011;36548;50.506;30.834;2023-05-07T06:38:45;2.85;;;2.22;;
50591;SDS011;36548;50.506;30.834;2023-05-07T06:39:57;3.85;;;2.45;;
50591;SDS011;36548;50.506;30.834;2023-05-07T06:41:13;2.43;;;2.15;;
50591;SDS011;36548;50.506;30.834;2023-05-07T06:42:22;4.95;;;2.05;;
50591;SDS011;36548;50.506;30.834;2023-05-07T06:43:32;2.35;;;2.00;;
50591;SDS011;36548;50.506;30.834;2023-05-07T06:45:26;3.75;;;2.30;;
50591;SDS011;36548;50.506;30.834;2023-05-07T06:46:41;2.48;;;1.98;;
50591;SDS011;36548;50.506;30.834;2023-05-07T06:47:50;3.58;;;1.98;;
50591;SDS011;36548;50.506;30.834;2023-05-07T06:49:00;4.76;;;1.94;;
50591;SDS011;36548;50.506;30.834;2023-05-07T06:50:15;2.63;;;1.90;;
50591;SDS011;36548;50.506;30.834;2023-05-07T06:51:25;3.43;;;2.15;;
50591;SDS011;36548;50.506;30.834;2023-05-07T06:52:40;3.70;;;1.78;;
50591;SDS011;36548;50.506;30.834;2023-05-07T06:53:49;2.35;;;2.15;;
50591;SDS011;36548;50.506;30.834;2023-05-07T06:55:05;3.13;;;2.15;;
50591;SDS011;36548;50.506;30.834;2023-05-07T06:56:15;2.33;;;1.58;;
50591;SDS011;36548;50.506;30.834;2023-05-07T06:57:24;1.97;;;1.70;;
50591;SDS011;36548;50.506;30.834;2023-05-07T06:58:34;2.17;;;1.53;;
50591;SDS011;36548;50.506;30.834;2023-05-07T06:59:49;2.60;;;1.98;;
50591;SDS011;36548;50.506;30.834;2023-05-07T07:01:00;2.33;;;1.65;;
50591;SDS011;36548;50.506;30.834;2023-05-07T07:02:15;2.60;;;1.80;;
50591;SDS011;36548;50.506;30.834;2023-05-07T07:03:27;2.68;;;1.97;;
50591;SDS011;36548;50.506;30.834;2023-05-07T07:04:36;4.55;;;2.33;;
50591;SDS011;36548;50.506;30.834;2023-05-07T07:05:52;3.85;;;1.90;;
50591;SDS011;36548;50.506;30.834;2023-05-07T07:07:02;2.55;;;1.95;;
50591;SDS011;36548;50.506;30.834;2023-05-07T07:08:17;3.08;;;1.85;;
50591;SDS011;36548;50.506;30.834;2023-05-07T07:09:26;1.80;;;1.70;;
50591;SDS011;36548;50.506;30.834;2023-05-07T07:10:42;2.27;;;1.63;;
50591;SDS011;36548;50.506;30.834;2023-05-07T07:11:53;3.90;;;2.05;;
50591;SDS011;36548;50.506;30.834;2023-05-07T07:13:08;1.83;;;1.40;;
50591;SDS011;36548;50.506;30.834;2023-05-07T07:14:17;1.72;;;1.58;;
50591;SDS011;36548;50.506;30.834;2023-05-07T07:15:32;2.75;;;1.60;;
50591;SDS011;36548;50.506;30.834;2023-05-07T07:16:42;1.78;;;1.62;;
50591;SDS011;36548;50.506;30.834;2023-05-07T07:17:57;2.33;;;1.90;;
50591;SDS011;36548;50.506;30.834;2023-05-07T07:19:06;2.07;;;1.58;;
50591;SDS011;36548;50.506;30.834;2023-05-07T07:20:21;1.87;;;1.70;;
50591;SDS011;36548;50.506;30.834;2023-05-07T07:21:30;1.80;;;1.57;;
50591;SDS011;36548;50.506;30.834;2023-05-07T07:22:46;2.70;;;1.80;;
50591;SDS011;36548;50.506;30.834;2023-05-07T07:25:08;2.25;;;1.47;;
50591;SDS011;36548;50.506;30.834;2023-05-07T07:26:21;3.27;;;1.60;;